createdAt,value
2022-08-19T00:01:59.141Z,99.90
2022-08-19T00:04:30.791Z,99.90
2022-08-19T00:06:59.960Z,99.90
2022-08-19T00:09:30.053Z,99.90
2022-08-19T00:11:59.337Z,99.90
2022-08-19T00:14:28.685Z,99.90
2022-08-19T00:16:56.878Z,99.90
2022-08-19T00:19:25.769Z,99.90
2022-08-19T00:21:54.159Z,99.90
2022-08-19T00:24:22.305Z,99.90
2022-08-19T00:26:52.387Z,99.90
2022-08-19T00:29:23.558Z,99.90
2022-08-19T00:31:55.728Z,99.90
2022-08-19T00:34:24.847Z,99.90
2022-08-19T00:36:53.250Z,99.90
2022-08-19T00:39:21.688Z,99.90
2022-08-19T00:41:52.882Z,99.90
2022-08-19T00:44:27.171Z,99.90
2022-08-19T00:46:58.205Z,99.90
2022-08-19T00:49:30.127Z,99.90
2022-08-19T00:52:02.923Z,99.90
2022-08-19T00:54:32.472Z,99.90
2022-08-19T00:57:04.122Z,99.90
2022-08-19T01:00:00.943Z,99.90
2022-08-19T01:02:21.105Z,99.90
2022-08-19T01:04:49.330Z,99.90
2022-08-19T01:07:19.649Z,99.90
2022-08-19T01:09:48.261Z,99.90
2022-08-19T01:12:19.174Z,99.90
2022-08-19T01:14:50.024Z,99.90
2022-08-19T01:17:18.872Z,99.90
2022-08-19T01:19:48.798Z,99.90
2022-08-19T01:22:30.004Z,99.90
2022-08-19T01:25:01.122Z,99.90
2022-08-19T01:27:35.328Z,99.90
2022-08-19T01:30:13.502Z,99.90
2022-08-19T01:35:11.370Z,99.90
2022-08-19T01:37:48.830Z,99.90
2022-08-19T01:40:20.309Z,99.90
2022-08-19T01:42:48.636Z,99.90
2022-08-19T01:45:16.928Z,99.90
2022-08-19T01:50:31.768Z,99.90
2022-08-19T01:53:03.644Z,99.90
2022-08-19T01:55:41.215Z,99.90
2022-08-19T01:58:13.046Z,99.90
2022-08-19T02:08:08.038Z,99.90
2022-08-19T02:10:41.565Z,99.90
2022-08-19T02:15:40.066Z,99.90
2022-08-19T02:20:37.717Z,99.90
2022-08-19T02:25:45.439Z,99.90
2022-08-19T02:28:16.752Z,99.90
2022-08-19T02:30:47.803Z,99.90
2022-08-19T02:33:16.025Z,99.90
2022-08-19T02:35:45.208Z,99.90
2022-08-19T02:38:28.146Z,99.90
2022-08-19T02:40:59.583Z,99.90
2022-08-19T02:43:29.108Z,99.90
2022-08-19T02:46:01.767Z,99.90
2022-08-19T02:48:30.158Z,99.90
2022-08-19T02:50:58.329Z,99.90
2022-08-19T02:53:29.816Z,99.90
2022-08-19T02:55:59.502Z,99.90
2022-08-19T02:58:28.359Z,99.90
2022-08-19T03:00:58.309Z,99.90
2022-08-19T03:03:27.131Z,99.90
2022-08-19T03:06:06.703Z,99.90
2022-08-19T03:08:34.922Z,99.90
2022-08-19T03:11:05.076Z,99.90
2022-08-19T03:13:33.530Z,99.90
2022-08-19T03:18:30.060Z,99.90
2022-08-19T03:23:26.712Z,99.90
2022-08-19T03:25:58.374Z,99.90
2022-08-19T03:28:35.118Z,99.90
2022-08-19T03:31:41.471Z,99.90
2022-08-19T03:36:26.440Z,99.90
2022-08-19T03:38:59.768Z,99.90
2022-08-19T03:41:44.238Z,99.90
2022-08-19T03:44:18.165Z,99.90
2022-08-19T03:46:47.808Z,99.90
2022-08-19T03:54:17.628Z,99.90
2022-08-19T03:56:46.960Z,99.90
2022-08-19T03:59:19.647Z,99.90
2022-08-19T04:04:16.337Z,99.90
2022-08-19T04:06:48.212Z,99.90
2022-08-19T04:09:16.709Z,99.90
2022-08-19T04:11:50.111Z,99.90
2022-08-19T04:14:22.680Z,99.90
2022-08-19T04:16:51.702Z,99.90
2022-08-19T04:19:21.896Z,99.90
2022-08-19T04:21:52.028Z,99.90
2022-08-19T04:24:21.520Z,99.90
2022-08-19T04:26:50.042Z,99.90
2022-08-19T04:29:27.818Z,99.90
2022-08-19T04:31:57.943Z,99.90
2022-08-19T04:34:29.259Z,99.90
2022-08-19T04:36:59.712Z,99.90
2022-08-19T04:39:45.257Z,99.90
2022-08-19T04:45:01.790Z,99.90
2022-08-19T04:50:23.588Z,99.90
2022-08-19T04:52:54.331Z,99.90
2022-08-19T04:55:22.651Z,99.90
2022-08-19T05:00:21.341Z,99.90
2022-08-19T05:02:50.296Z,99.90
2022-08-19T05:07:47.000Z,99.90
2022-08-19T05:10:15.527Z,99.90
2022-08-19T05:12:43.684Z,99.90
2022-08-19T05:15:12.371Z,99.90
2022-08-19T05:18:03.294Z,99.90
2022-08-19T05:23:21.915Z,99.90
2022-08-19T05:25:52.590Z,99.90
2022-08-19T05:28:21.331Z,99.90
2022-08-19T05:30:51.747Z,99.90
2022-08-19T05:33:21.385Z,99.90
2022-08-19T05:35:50.455Z,99.90
2022-08-19T05:38:19.287Z,99.90
2022-08-19T05:43:17.541Z,99.90
2022-08-19T05:45:46.414Z,99.90
2022-08-19T05:48:15.706Z,99.90
2022-08-19T05:50:46.312Z,99.90
2022-08-19T05:53:15.530Z,99.90
2022-08-19T05:55:43.648Z,99.90
2022-08-19T05:58:12.815Z,99.90
2022-08-19T06:00:41.173Z,99.90
2022-08-19T06:03:09.633Z,99.90
2022-08-19T06:05:44.798Z,99.90
2022-08-19T06:08:34.277Z,99.90
2022-08-19T06:11:19.443Z,99.90
2022-08-19T06:13:51.865Z,99.90
2022-08-19T06:18:58.001Z,99.90
2022-08-19T06:21:28.977Z,99.90
2022-08-19T06:23:59.570Z,99.90
2022-08-19T06:26:28.602Z,99.90
2022-08-19T06:31:27.331Z,99.90
2022-08-19T06:33:55.723Z,99.90
2022-08-19T06:36:28.078Z,99.90
2022-08-19T06:38:57.919Z,99.90
2022-08-19T06:41:28.197Z,99.90
2022-08-19T06:43:57.298Z,99.90
2022-08-19T06:46:27.370Z,99.90
2022-08-19T06:48:55.877Z,99.90
2022-08-19T06:51:25.220Z,99.90
2022-08-19T06:53:56.703Z,99.90
2022-08-19T06:56:32.841Z,99.90
2022-08-19T06:59:01.541Z,99.90
2022-08-19T07:01:30.053Z,99.90
2022-08-19T07:03:58.654Z,99.90
2022-08-19T07:06:43.645Z,99.90
2022-08-19T07:09:14.851Z,99.90
2022-08-19T07:11:50.268Z,99.90
2022-08-19T07:14:20.946Z,99.90
2022-08-19T07:16:51.074Z,99.90
2022-08-19T07:19:19.573Z,99.90
2022-08-19T07:21:50.499Z,99.90
2022-08-19T07:24:19.584Z,99.90
2022-08-19T07:26:51.790Z,99.90
2022-08-19T07:29:24.130Z,99.90
2022-08-19T07:32:00.024Z,99.90
2022-08-19T07:34:30.347Z,99.90
2022-08-19T07:36:58.850Z,99.90
2022-08-19T07:39:30.073Z,99.90
2022-08-19T07:42:01.572Z,99.90
2022-08-19T07:44:30.409Z,99.90
2022-08-19T07:47:01.093Z,99.90
2022-08-19T07:49:29.447Z,99.90
2022-08-19T07:52:00.302Z,99.90
2022-08-19T07:54:29.887Z,99.90
2022-08-19T07:56:59.603Z,99.90
2022-08-19T07:59:27.712Z,99.90
2022-08-19T08:01:56.072Z,99.90
2022-08-19T08:04:42.590Z,99.90
2022-08-19T08:07:31.617Z,99.90
2022-08-19T08:10:00.821Z,99.90
2022-08-19T08:12:36.485Z,99.90
2022-08-19T08:15:12.638Z,99.90
2022-08-19T08:17:49.491Z,99.90
2022-08-19T08:20:21.016Z,99.90
2022-08-19T08:23:07.572Z,99.90
2022-08-19T08:25:37.585Z,99.90
2022-08-19T08:28:09.655Z,99.90
2022-08-19T08:30:45.291Z,99.90
2022-08-19T08:33:13.683Z,99.90
2022-08-19T08:35:43.960Z,99.90
2022-08-19T08:38:12.177Z,99.90
2022-08-19T08:40:45.293Z,99.50
2022-08-19T08:43:26.587Z,98.90
2022-08-19T08:46:03.708Z,97.00
2022-08-19T08:48:41.935Z,95.30
2022-08-19T08:51:14.992Z,94.00
2022-08-19T08:53:51.298Z,92.50
2022-08-19T08:56:25.166Z,92.80
2022-08-19T08:59:00.820Z,91.10
2022-08-19T09:01:30.403Z,91.10
2022-08-19T09:04:03.030Z,88.90
2022-08-19T09:06:40.839Z,88.90
2022-08-19T09:09:16.606Z,85.80
2022-08-19T09:12:01.623Z,87.70
2022-08-19T09:14:51.205Z,82.60
2022-08-19T09:17:21.229Z,82.10
2022-08-19T09:19:53.603Z,82.10
2022-08-19T09:22:25.522Z,84.40
2022-08-19T09:24:54.684Z,85.70
2022-08-19T09:27:42.117Z,84.40
2022-08-19T09:30:16.786Z,82.10
2022-08-19T09:32:46.338Z,81.20
2022-08-19T09:35:16.170Z,82.80
2022-08-19T09:37:45.203Z,81.30
2022-08-19T09:40:15.547Z,79.70
2022-08-19T09:42:50.177Z,78.80
2022-08-19T09:45:24.148Z,74.90
2022-08-19T09:47:55.316Z,74.70
2022-08-19T09:50:25.386Z,74.00
2022-08-19T09:52:57.552Z,71.30
2022-08-19T09:55:31.693Z,70.40
2022-08-19T09:58:01.975Z,70.90
2022-08-19T10:00:32.410Z,70.30
2022-08-19T10:03:00.985Z,71.90
2022-08-19T10:05:48.465Z,71.30
2022-08-19T10:08:17.905Z,71.20
2022-08-19T10:10:47.179Z,68.90
2022-08-19T10:13:17.792Z,68.40
2022-08-19T10:15:49.424Z,67.90
2022-08-19T10:18:19.163Z,68.10
2022-08-19T10:20:51.844Z,66.10
2022-08-19T10:23:21.782Z,64.10
2022-08-19T10:25:54.535Z,63.20
2022-08-19T10:28:23.976Z,64.30
2022-08-19T10:30:54.275Z,64.10
2022-08-19T10:33:38.882Z,63.90
2022-08-19T10:36:12.776Z,62.80
2022-08-19T10:38:42.311Z,64.10
2022-08-19T10:41:24.477Z,63.00
2022-08-19T10:43:55.305Z,61.40
2022-08-19T10:46:26.682Z,61.00
2022-08-19T10:48:55.408Z,60.60
2022-08-19T10:51:46.520Z,60.60
2022-08-19T10:54:16.827Z,60.90
2022-08-19T10:56:53.227Z,59.70
2022-08-19T10:59:26.712Z,60.20
2022-08-19T11:02:01.613Z,60.30
2022-08-19T11:04:29.774Z,62.60
2022-08-19T11:06:58.482Z,60.80
2022-08-19T11:09:33.612Z,60.80
2022-08-19T11:12:05.001Z,60.80
2022-08-19T11:14:34.871Z,61.70
2022-08-19T11:17:06.439Z,60.40
2022-08-19T11:19:34.899Z,62.00
2022-08-19T11:22:03.990Z,60.60
2022-08-19T11:24:33.839Z,59.60
2022-08-19T11:27:08.404Z,59.00
2022-08-19T11:29:37.428Z,59.00
2022-08-19T11:32:09.988Z,58.80
2022-08-19T11:34:39.229Z,60.30
2022-08-19T11:37:09.903Z,61.60
2022-08-19T11:39:39.408Z,61.60
2022-08-19T11:42:23.189Z,59.80
2022-08-19T11:44:51.586Z,59.10
2022-08-19T11:47:21.514Z,56.60
2022-08-19T11:49:49.944Z,57.40
2022-08-19T11:52:18.133Z,55.70
2022-08-19T11:54:47.343Z,56.80
2022-08-19T11:57:17.885Z,56.20
2022-08-19T11:59:51.463Z,57.00
2022-08-19T12:02:22.579Z,57.20
2022-08-19T12:04:50.799Z,57.80
2022-08-19T12:07:18.992Z,56.70
2022-08-19T12:09:48.594Z,57.80
2022-08-19T12:12:17.553Z,55.90
2022-08-19T12:14:47.507Z,57.40
2022-08-19T12:17:16.256Z,57.70
2022-08-19T12:19:45.785Z,57.10
2022-08-19T12:22:14.057Z,56.60
2022-08-19T12:24:42.352Z,56.80
2022-08-19T12:27:12.862Z,57.10
2022-08-19T12:29:42.448Z,55.70
2022-08-19T12:32:12.254Z,55.40
2022-08-19T12:34:40.757Z,56.00
2022-08-19T12:37:11.990Z,54.80
2022-08-19T12:39:42.423Z,54.00
2022-08-19T12:42:11.598Z,54.30
2022-08-19T12:44:41.689Z,55.20
2022-08-19T12:47:13.209Z,56.60
2022-08-19T12:49:55.112Z,58.00
2022-08-19T12:52:28.172Z,56.10
2022-08-19T12:54:58.202Z,55.20
2022-08-19T12:57:31.848Z,56.50
2022-08-19T13:00:04.718Z,56.20
2022-08-19T13:02:38.573Z,57.10
2022-08-19T13:05:12.115Z,57.30
2022-08-19T13:07:44.724Z,57.90
2022-08-19T13:10:16.309Z,58.30
2022-08-19T13:12:44.750Z,58.50
2022-08-19T13:15:15.162Z,57.00
2022-08-19T13:17:44.062Z,56.50
2022-08-19T13:20:13.420Z,56.40
2022-08-19T13:22:43.358Z,55.90
2022-08-19T13:25:12.770Z,56.30
2022-08-19T13:27:41.196Z,57.50
2022-08-19T13:30:29.073Z,57.60
2022-08-19T13:33:12.679Z,57.70
2022-08-19T13:35:42.581Z,57.00
2022-08-19T13:38:13.633Z,57.00
2022-08-19T13:40:43.234Z,56.20
2022-08-19T13:43:13.585Z,55.60
2022-08-19T13:45:56.876Z,55.90
2022-08-19T13:48:27.357Z,55.80
2022-08-19T13:50:56.031Z,55.50
2022-08-19T13:53:25.717Z,56.30
2022-08-19T13:55:54.678Z,56.40
2022-08-19T13:58:23.340Z,55.90
2022-08-19T14:00:51.565Z,56.10
2022-08-19T14:03:19.776Z,56.10
2022-08-19T14:05:48.747Z,56.30
2022-08-19T14:08:17.212Z,56.30
2022-08-19T14:10:47.321Z,55.70
2022-08-19T14:13:17.477Z,55.20
2022-08-19T14:15:46.703Z,54.00
2022-08-19T14:18:15.150Z,53.50
2022-08-19T14:20:43.685Z,52.30
2022-08-19T14:23:13.189Z,51.40
2022-08-19T14:25:41.537Z,51.60
2022-08-19T14:28:11.298Z,50.80
2022-08-19T14:30:40.605Z,50.30
2022-08-19T14:33:09.673Z,50.00
2022-08-19T14:35:38.860Z,49.90
2022-08-19T14:38:09.103Z,50.30
2022-08-19T14:40:37.364Z,50.30
2022-08-19T14:43:06.880Z,49.90
2022-08-19T14:45:39.150Z,50.20
2022-08-19T14:48:18.879Z,49.30
2022-08-19T14:50:47.956Z,50.40
2022-08-19T14:53:17.850Z,49.50
2022-08-19T14:55:47.266Z,48.90
2022-08-19T14:58:29.436Z,48.80
2022-08-19T15:01:01.134Z,49.70
2022-08-19T15:03:29.752Z,49.40
2022-08-19T15:05:59.003Z,50.30
2022-08-19T15:08:30.272Z,50.80
2022-08-19T15:10:59.495Z,51.40
2022-08-19T15:13:29.129Z,52.20
2022-08-19T15:15:59.278Z,52.90
2022-08-19T15:18:27.586Z,52.80
2022-08-19T15:20:56.170Z,53.00
2022-08-19T15:23:24.538Z,52.90
2022-08-19T15:25:56.468Z,53.50
2022-08-19T15:28:25.828Z,52.80
2022-08-19T15:30:54.314Z,52.60
2022-08-19T15:33:23.889Z,53.00
2022-08-19T15:35:52.639Z,53.70
2022-08-19T15:38:22.296Z,53.30
2022-08-19T15:40:51.302Z,52.70
2022-08-19T15:43:21.324Z,52.60
2022-08-19T15:45:49.892Z,51.80
2022-08-19T15:48:18.218Z,52.40
2022-08-19T15:50:48.497Z,52.50
2022-08-19T15:53:17.166Z,51.60
2022-08-19T15:55:48.586Z,52.00
2022-08-19T15:58:34.803Z,52.30
2022-08-19T16:01:23.782Z,51.90
2022-08-19T16:04:13.741Z,53.10
2022-08-19T16:06:47.373Z,53.10
2022-08-19T16:09:16.789Z,53.20
2022-08-19T16:11:46.208Z,53.20
2022-08-19T16:14:15.588Z,53.80
2022-08-19T16:16:44.563Z,54.10
2022-08-19T16:19:13.444Z,54.10
2022-08-19T16:21:42.031Z,54.50
2022-08-19T16:24:14.333Z,53.50
2022-08-19T16:26:43.474Z,54.00
2022-08-19T16:29:13.341Z,54.00
2022-08-19T16:31:43.570Z,54.30
2022-08-19T16:34:12.539Z,53.80
2022-08-19T16:36:42.200Z,54.50
2022-08-19T16:39:12.563Z,53.90
2022-08-19T16:41:42.130Z,53.80
2022-08-19T16:44:13.540Z,54.40
2022-08-19T16:46:42.441Z,54.40
2022-08-19T16:49:11.868Z,53.90
2022-08-19T16:51:40.903Z,53.80
2022-08-19T16:54:09.761Z,53.50
2022-08-19T16:56:39.383Z,55.80
2022-08-19T16:59:08.664Z,53.90
2022-08-19T17:01:36.819Z,53.30
2022-08-19T17:04:05.305Z,53.50
2022-08-19T17:06:36.590Z,53.10
2022-08-19T17:09:06.604Z,52.80
2022-08-19T17:11:35.751Z,52.90
2022-08-19T17:14:06.755Z,52.60
2022-08-19T17:16:36.233Z,52.50
2022-08-19T17:19:06.468Z,52.90
2022-08-19T17:21:40.500Z,52.90
2022-08-19T17:24:09.511Z,53.40
2022-08-19T17:26:38.571Z,53.40
2022-08-19T17:29:08.633Z,53.60
2022-08-19T17:31:37.381Z,54.00
2022-08-19T17:34:06.202Z,54.60
2022-08-19T17:36:35.422Z,54.90
2022-08-19T17:39:05.563Z,54.40
2022-08-19T17:41:35.263Z,54.50
2022-08-19T17:44:07.307Z,54.20
2022-08-19T17:46:35.471Z,54.50
2022-08-19T17:49:03.722Z,54.30
2022-08-19T17:51:45.005Z,54.50
2022-08-19T17:54:15.626Z,54.80
2022-08-19T17:56:46.240Z,55.10
2022-08-19T17:59:16.952Z,55.10
2022-08-19T18:01:53.873Z,55.40
2022-08-19T18:04:24.062Z,55.70
2022-08-19T18:06:54.350Z,55.90
2022-08-19T18:09:25.102Z,56.00
2022-08-19T18:11:55.329Z,56.10
2022-08-19T18:14:32.805Z,56.20
2022-08-19T18:17:05.563Z,56.30
2022-08-19T18:19:41.017Z,56.80
2022-08-19T18:22:11.503Z,57.40
2022-08-19T18:24:40.494Z,57.40
2022-08-19T18:27:08.620Z,57.70
2022-08-19T18:29:40.226Z,58.10
2022-08-19T18:32:13.202Z,58.50
2022-08-19T18:34:42.175Z,58.80
2022-08-19T18:37:10.437Z,58.60
2022-08-19T18:39:56.206Z,59.10
2022-08-19T18:42:42.149Z,59.40
2022-08-19T18:45:30.028Z,59.20
2022-08-19T18:48:27.430Z,59.30
2022-08-19T18:50:57.690Z,59.40
2022-08-19T18:53:27.248Z,59.60
2022-08-19T18:55:55.728Z,59.80
2022-08-19T18:58:26.691Z,59.70
2022-08-19T19:00:57.449Z,59.90
2022-08-19T19:03:26.531Z,59.80
2022-08-19T19:05:55.100Z,60.10
2022-08-19T19:08:26.891Z,60.50
2022-08-19T19:10:56.058Z,60.70
2022-08-19T19:13:24.273Z,61.30
2022-08-19T19:15:52.366Z,61.50
2022-08-19T19:18:21.918Z,61.40
2022-08-19T19:20:50.062Z,62.20
2022-08-19T19:23:18.245Z,62.70
2022-08-19T19:25:50.871Z,63.70
2022-08-19T19:28:23.982Z,63.40
2022-08-19T19:30:53.111Z,64.30
2022-08-19T19:33:23.038Z,64.60
2022-08-19T19:35:52.589Z,65.70
2022-08-19T19:38:21.029Z,66.10
2022-08-19T19:40:49.212Z,66.50
2022-08-19T19:43:18.302Z,67.30
2022-08-19T19:45:48.282Z,67.80
2022-08-19T19:48:16.621Z,68.10
2022-08-19T19:50:55.859Z,68.40
2022-08-19T19:53:26.234Z,69.00
2022-08-19T19:55:58.681Z,69.00
2022-08-19T19:58:28.903Z,69.50
2022-08-19T20:00:58.923Z,70.00
2022-08-19T20:03:29.862Z,70.20
2022-08-19T20:06:00.311Z,70.40
2022-08-19T20:08:46.849Z,70.20
2022-08-19T20:11:32.856Z,69.10
2022-08-19T20:14:03.049Z,69.70
2022-08-19T20:16:32.352Z,71.70
2022-08-19T20:19:02.445Z,74.90
2022-08-19T20:21:33.271Z,77.60
2022-08-19T20:24:09.378Z,79.30
2022-08-19T20:26:38.433Z,80.40
2022-08-19T20:29:13.734Z,81.70
2022-08-19T20:31:59.060Z,82.80
2022-08-19T20:34:28.729Z,84.10
2022-08-19T20:36:58.558Z,85.30
2022-08-19T20:39:26.849Z,86.30
2022-08-19T20:41:56.500Z,87.00
2022-08-19T20:44:25.535Z,88.10
2022-08-19T20:46:55.332Z,89.40
2022-08-19T20:49:27.484Z,90.20
2022-08-19T20:51:58.384Z,90.50
2022-08-19T20:54:27.257Z,90.80
2022-08-19T20:56:55.480Z,91.30
2022-08-19T20:59:24.174Z,91.50
2022-08-19T21:01:52.772Z,91.80
2022-08-19T21:04:22.069Z,92.40
2022-08-19T21:06:50.313Z,93.00
2022-08-19T21:09:20.041Z,93.40
2022-08-19T21:11:48.795Z,94.10
2022-08-19T21:14:17.153Z,94.30
2022-08-19T21:16:45.261Z,94.60
2022-08-19T21:19:13.772Z,95.00
2022-08-19T21:21:42.544Z,95.40
2022-08-19T21:24:10.831Z,95.70
2022-08-19T21:26:41.508Z,95.80
2022-08-19T21:29:09.704Z,96.30
2022-08-19T21:31:37.857Z,96.50
2022-08-19T21:34:06.525Z,96.70
2022-08-19T21:36:34.999Z,97.10
2022-08-19T21:39:03.340Z,97.20
2022-08-19T21:41:31.686Z,97.50
2022-08-19T21:44:01.276Z,98.00
2022-08-19T21:46:29.538Z,98.20
2022-08-19T21:48:57.715Z,98.30
2022-08-19T21:51:25.857Z,98.50
2022-08-19T21:53:54.620Z,98.60
2022-08-19T21:56:22.993Z,98.90
2022-08-19T21:58:51.371Z,99.00
2022-08-19T22:01:20.960Z,99.10
2022-08-19T22:03:49.142Z,99.20
2022-08-19T22:06:17.805Z,99.20
2022-08-19T22:08:46.105Z,99.30
2022-08-19T22:11:14.245Z,99.30
2022-08-19T22:13:42.936Z,99.80
2022-08-19T22:16:11.422Z,99.90
2022-08-19T22:18:41.477Z,99.90
2022-08-19T22:21:11.908Z,99.90
2022-08-19T22:23:41.669Z,99.90
2022-08-19T22:26:10.416Z,99.90
2022-08-19T22:28:39.522Z,99.90
2022-08-19T22:31:08.098Z,99.90
2022-08-19T22:33:36.933Z,99.90
2022-08-19T22:36:08.592Z,99.90
2022-08-19T22:38:38.334Z,99.90
2022-08-19T22:41:07.998Z,99.90
2022-08-19T22:43:37.494Z,99.90
2022-08-19T22:46:06.597Z,99.90
2022-08-19T22:48:46.616Z,99.90
2022-08-19T22:51:34.253Z,99.90
2022-08-19T22:54:03.123Z,99.90
2022-08-19T22:56:31.466Z,99.90
2022-08-19T22:58:59.906Z,99.90
2022-08-19T23:01:30.643Z,99.90
2022-08-19T23:04:00.307Z,99.90
2022-08-19T23:06:36.344Z,99.90
2022-08-19T23:09:07.950Z,99.90
2022-08-19T23:11:41.931Z,99.90
2022-08-19T23:14:12.498Z,99.90
2022-08-19T23:16:41.613Z,99.90
2022-08-19T23:19:10.827Z,99.90
2022-08-19T23:21:40.803Z,99.90
2022-08-19T23:24:09.864Z,99.90
2022-08-19T23:26:38.382Z,99.90
2022-08-19T23:29:24.108Z,99.90
2022-08-19T23:31:52.557Z,99.90
2022-08-19T23:34:21.407Z,99.90
2022-08-19T23:36:51.056Z,99.90
2022-08-19T23:39:19.470Z,99.90
2022-08-19T23:41:48.409Z,99.90
2022-08-19T23:44:17.235Z,99.90
2022-08-19T23:46:54.617Z,99.90
2022-08-19T23:49:24.819Z,99.90
2022-08-19T23:51:55.525Z,99.90
2022-08-19T23:54:42.634Z,99.90
2022-08-19T23:57:14.165Z,99.90
2022-08-19T23:59:45.289Z,99.90
